Time;durP1;ratioP1;P1;durP2;ratioP2;P2;SDS_P1;SDS_P2;PMS_P1;PMS_P2;Temp;Humidity;BMP_temperature;BMP_pressure;BME280_temperature;BME280_humidity;BME280_pressure;Samples;Min_cycle;Max_cycle;Signal;HPM_P1;HPM_P2
2023/05/19 00:01:59;;;;;;;7.15;1.70;;;;;;;16.59;39.25;102375.06;5026683;27;97547;-71
2023/05/19 00:04:27;;;;;;;9.88;1.80;;;;;;;16.47;39.38;102374.63;5031594;28;98948;-72
2023/05/19 00:06:54;;;;;;;6.35;1.85;;;;;;;16.48;39.12;102376.34;5027757;27;98832;-72
2023/05/19 00:09:21;;;;;;;10.52;1.73;;;;;;;16.47;39.47;102379.97;5029255;27;96917;-72
2023/05/19 00:11:48;;;;;;;9.82;2.60;;;;;;;16.48;39.15;102379.88;5034304;27;96955;-72
2023/05/19 00:14:15;;;;;;;6.40;1.90;;;;;;;16.51;39.14;102376.25;5030925;27;99529;-72
2023/05/19 00:16:42;;;;;;;8.23;2.08;;;;;;;16.43;39.17;102380.97;5033664;27;98817;-73
2023/05/19 00:19:09;;;;;;;12.13;2.20;;;;;;;16.38;39.23;102375.78;5034402;27;97675;-72
2023/05/19 00:21:38;;;;;;;8.02;1.77;;;;;;;16.25;39.45;102386.00;5032794;27;96937;-74
2023/05/19 00:24:05;;;;;;;4.85;1.42;;;;;;;16.28;39.49;102385.88;5027895;27;97904;-73
2023/05/19 00:26:31;;;;;;;7.03;1.80;;;;;;;16.06;40.02;102384.88;5028167;27;98830;-72
2023/05/19 00:28:58;;;;;;;10.77;1.90;;;;;;;16.34;39.47;102382.16;5028854;27;96756;-72
2023/05/19 00:31:24;;;;;;;8.35;2.00;;;;;;;16.21;39.56;102379.00;5025318;27;96886;-73
2023/05/19 00:33:52;;;;;;;6.35;2.20;;;;;;;16.23;39.47;102378.97;5021328;27;97610;-73
2023/05/19 00:36:18;;;;;;;4.43;2.05;;;;;;;16.30;39.16;102378.72;5024090;27;98795;-74
2023/05/19 00:38:46;;;;;;;8.77;2.13;;;;;;;16.15;39.50;102381.88;5020820;27;96943;-73
2023/05/19 00:41:12;;;;;;;11.60;1.80;;;;;;;16.18;39.61;102376.47;5022412;27;96907;-73
2023/05/19 00:43:39;;;;;;;5.20;1.50;;;;;;;16.07;39.70;102378.63;5019869;27;99305;-73
2023/05/19 00:46:06;;;;;;;8.77;1.92;;;;;;;16.24;39.35;102370.91;5033095;27;99219;-74
2023/05/19 00:48:32;;;;;;;10.25;1.45;;;;;;;16.13;39.39;102378.41;5028823;27;96922;-73
2023/05/19 00:51:04;;;;;;;11.48;1.90;;;;;;;16.22;39.11;102375.44;5023380;27;98375;-74
2023/05/19 00:53:31;;;;;;;6.82;1.40;;;;;;;16.10;39.43;102375.84;5024983;27;98399;-74
2023/05/19 00:56:00;;;;;;;8.18;1.63;;;;;;;15.97;39.81;102379.81;5022190;27;99091;-74
2023/05/19 00:58:29;;;;;;;8.80;1.88;;;;;;;16.07;39.51;102377.75;5031879;27;96866;-74
2023/05/19 01:01:01;;;;;;;11.65;1.90;;;;;;;15.89;39.88;102377.41;5021151;27;97957;-74
2023/05/19 01:03:29;;;;;;;8.75;2.05;;;;;;;15.85;39.70;102381.09;5022761;27;98765;-74
2023/05/19 01:05:56;;;;;;;9.10;1.75;;;;;;;15.85;39.74;102375.75;5019909;27;100141;-75
2023/05/19 01:08:23;;;;;;;6.07;1.60;;;;;;;15.97;39.57;102373.63;5027153;27;96858;-74
2023/05/19 01:10:49;;;;;;;8.20;1.98;;;;;;;15.89;39.75;102376.53;5019834;27;97540;-73
2023/05/19 01:13:17;;;;;;;8.88;1.65;;;;;;;15.86;39.92;102371.31;5019369;27;102744;-73
2023/05/19 01:15:57;;;;;;;7.57;1.73;;;;;;;15.70;40.12;102370.03;5020970;27;99287;-73
2023/05/19 01:18:41;;;;;;;11.27;2.00;;;;;;;15.65;40.11;102366.63;5027335;27;97885;-73
2023/05/19 01:21:23;;;;;;;7.57;1.65;;;;;;;15.81;39.86;102373.25;5024635;27;97064;-73
2023/05/19 01:23:55;;;;;;;6.60;1.67;;;;;;;15.66;40.04;102374.59;5027162;27;99295;-73
2023/05/19 01:26:45;;;;;;;9.43;2.05;;;;;;;15.84;39.78;102365.13;5028352;27;98771;-73
2023/05/19 01:29:29;;;;;;;8.88;1.52;;;;;;;15.71;39.90;102369.97;5022723;27;96841;-73
2023/05/19 01:31:59;;;;;;;8.95;1.58;;;;;;;15.66;40.16;102374.59;5019527;27;96900;-73
2023/05/19 01:34:27;;;;;;;9.25;1.40;;;;;;;15.73;39.73;102378.81;5015885;27;100547;-72
2023/05/19 01:36:54;;;;;;;9.55;1.90;;;;;;;15.80;39.55;102383.03;5021490;27;99278;-73
2023/05/19 01:39:21;;;;;;;7.22;1.63;;;;;;;15.70;39.78;102370.03;5022314;27;97304;-74
2023/05/19 01:41:48;;;;;;;11.20;1.50;;;;;;;15.67;39.88;102373.69;5020176;27;98789;-72
2023/05/19 01:44:15;;;;;;;6.85;1.70;;;;;;;15.74;39.69;102377.03;5021585;27;99108;-72
2023/05/19 01:46:42;;;;;;;7.00;1.75;;;;;;;15.68;40.05;102372.75;5019623;27;99555;-72
2023/05/19 01:49:11;;;;;;;10.05;2.30;;;;;;;15.57;40.36;102373.97;5018491;27;99007;-72
2023/05/19 01:51:37;;;;;;;8.55;1.80;;;;;;;15.62;40.08;102369.41;5019569;27;97148;-74
2023/05/19 01:54:04;;;;;;;6.40;1.65;;;;;;;15.58;40.12;102371.28;5027569;27;100582;-72
2023/05/19 01:56:37;;;;;;;5.78;1.92;;;;;;;15.54;40.36;102375.84;5025291;27;99131;-73
2023/05/19 01:59:21;;;;;;;5.03;1.60;;;;;;;15.54;40.23;102381.19;5017547;27;96837;-72
2023/05/19 02:01:52;;;;;;;4.70;1.30;;;;;;;15.49;40.33;102379.53;5028130;27;96861;-73
2023/05/19 02:04:31;;;;;;;10.18;2.03;;;;;;;15.45;40.42;102384.06;5022635;27;99092;-72
2023/05/19 02:07:03;;;;;;;8.45;1.90;;;;;;;15.38;40.66;102376.31;5028383;27;99418;-72
2023/05/19 02:09:39;;;;;;;6.75;1.63;;;;;;;15.53;40.32;102375.88;5027697;27;97099;-73
2023/05/19 02:12:15;;;;;;;8.20;2.03;;;;;;;15.44;40.52;102382.31;5023565;27;96865;-73
2023/05/19 02:14:49;;;;;;;6.30;1.65;;;;;;;15.45;40.24;102378.75;5029134;27;99309;-73
2023/05/19 02:17:18;;;;;;;5.85;1.80;;;;;;;15.38;40.48;102377.19;5022345;27;98752;-73
2023/05/19 02:19:46;;;;;;;6.93;1.60;;;;;;;15.40;40.55;102371.81;5029296;27;96871;-72
2023/05/19 02:22:12;;;;;;;4.30;1.42;;;;;;;15.39;40.30;102367.41;5022213;27;96904;-73
2023/05/19 02:24:40;;;;;;;5.28;1.50;;;;;;;15.38;40.56;102370.97;5031002;27;99177;-73
2023/05/19 02:27:06;;;;;;;9.95;1.83;;;;;;;15.30;40.49;102373.84;5029498;27;102181;-72
2023/05/19 02:29:33;;;;;;;6.88;1.52;;;;;;;15.30;40.57;102371.19;5028302;27;96783;-72
2023/05/19 02:32:00;;;;;;;8.90;1.52;;;;;;;15.38;40.47;102377.19;5025656;27;97198;-73
2023/05/19 02:34:27;;;;;;;7.82;1.70;;;;;;;15.18;40.79;102370.69;5026496;27;98286;-73
2023/05/19 02:36:55;;;;;;;8.50;1.70;;;;;;;15.18;40.87;102376.88;5028149;27;98966;-72
2023/05/19 02:39:21;;;;;;;9.05;1.85;;;;;;;15.08;40.97;102364.78;5026463;27;97401;-73
2023/05/19 02:41:48;;;;;;;6.70;1.90;;;;;;;15.20;40.94;102366.19;5028423;27;96969;-73
2023/05/19 02:44:14;;;;;;;5.43;1.48;;;;;;;15.29;40.57;102363.28;5024441;27;99272;-72
2023/05/19 02:46:40;;;;;;;7.47;1.70;;;;;;;15.27;40.73;102360.66;5020837;27;101089;-72
2023/05/19 02:49:07;;;;;;;9.80;1.63;;;;;;;15.12;40.91;102366.41;5030252;27;96738;-71
2023/05/19 02:51:33;;;;;;;9.25;2.22;;;;;;;15.26;40.60;102363.34;5022281;27;96767;-73
2023/05/19 02:54:01;;;;;;;7.03;1.40;;;;;;;15.52;40.26;102367.03;5026442;27;99540;-73
2023/05/19 02:56:27;;;;;;;5.85;1.48;;;;;;;15.63;40.00;102365.81;5017602;27;98911;-73
2023/05/19 02:58:54;;;;;;;3.78;1.38;;;;;;;15.52;40.22;102372.34;5021993;27;96954;-72
2023/05/19 03:01:21;;;;;;;6.03;1.60;;;;;;;15.58;40.09;102370.41;5018802;27;96815;-72
2023/05/19 03:03:48;;;;;;;11.27;2.45;;;;;;;15.51;40.14;102373.22;5021732;27;100611;-73
2023/05/19 03:06:16;;;;;;;8.00;1.67;;;;;;;15.51;39.92;102362.56;5028795;27;98990;-72
2023/05/19 03:08:43;;;;;;;9.75;1.80;;;;;;;15.53;39.99;102358.13;5022872;27;97699;-73
2023/05/19 03:11:11;;;;;;;5.38;1.83;;;;;;;15.49;40.14;102359.06;5024147;27;97234;-73
2023/05/19 03:13:37;;;;;;;5.65;1.50;;;;;;;15.47;40.37;102360.94;5024882;27;98250;-73
2023/05/19 03:16:03;;;;;;;7.65;2.33;;;;;;;15.39;40.55;102364.72;5022391;27;99407;-73
2023/05/19 03:18:30;;;;;;;8.93;1.73;;;;;;;15.33;40.83;102354.25;5024750;27;97533;-73
2023/05/19 03:20:56;;;;;;;6.95;1.88;;;;;;;15.56;40.35;102356.28;5027895;27;97345;-72
2023/05/19 03:23:23;;;;;;;5.70;1.58;;;;;;;15.58;40.15;102363.28;5026928;27;97392;-72
2023/05/19 03:25:49;;;;;;;3.85;1.65;;;;;;;15.67;40.00;102359.47;5020107;27;99434;-72
2023/05/19 03:28:17;;;;;;;10.40;2.33;;;;;;;15.50;40.45;102360.81;5019252;27;97245;-72
2023/05/19 03:30:43;;;;;;;8.43;1.73;;;;;;;15.48;40.60;102359.13;5016292;27;96971;-73
2023/05/19 03:33:10;;;;;;;7.35;1.83;;;;;;;15.41;40.70;102357.59;5022275;27;99484;-72
2023/05/19 03:35:36;;;;;;;11.20;2.10;;;;;;;15.44;40.52;102360.13;5025988;27;98925;-72
2023/05/19 03:38:03;;;;;;;7.88;1.90;;;;;;;15.36;40.69;102355.03;5026741;27;96672;-73
2023/05/19 03:40:29;;;;;;;3.72;1.30;;;;;;;15.39;40.62;102351.41;5024973;27;97384;-74
2023/05/19 03:42:56;;;;;;;6.93;1.75;;;;;;;15.53;40.52;102352.78;5027351;27;98187;-73
2023/05/19 03:45:24;;;;;;;5.05;1.40;;;;;;;15.35;40.94;102355.97;5022947;27;101481;-73
2023/05/19 03:47:50;;;;;;;8.05;1.73;;;;;;;15.33;41.04;102352.47;5029410;27;96769;-72
2023/05/19 03:50:16;;;;;;;5.43;1.60;;;;;;;15.50;41.00;102358.16;5020642;27;97195;-71
2023/05/19 03:52:45;;;;;;;5.60;1.80;;;;;;;15.45;41.00;102353.88;5021235;27;98919;-73
2023/05/19 03:55:13;;;;;;;6.57;2.20;;;;;;;15.54;40.80;102364.31;5028753;27;99292;-73
2023/05/19 03:57:40;;;;;;;4.25;1.55;;;;;;;15.63;40.59;102352.47;5027777;27;96756;-72
2023/05/19 04:00:09;;;;;;;5.95;1.90;;;;;;;15.36;41.19;102352.38;5015678;27;98419;-72
2023/05/19 04:02:37;;;;;;;7.70;2.03;;;;;;;15.59;40.77;102351.72;5021649;27;98457;-73
2023/05/19 04:05:04;;;;;;;6.32;1.70;;;;;;;15.76;40.56;102354.72;5022113;27;100123;-72
2023/05/19 04:07:31;;;;;;;5.60;1.75;;;;;;;15.80;40.50;102361.72;5024530;27;97089;-73
2023/05/19 04:09:57;;;;;;;7.93;2.17;;;;;;;15.78;40.60;102365.34;5027320;27;97685;-73
2023/05/19 04:12:24;;;;;;;5.82;2.30;;;;;;;15.95;40.16;102360.31;5023557;27;99430;-74
2023/05/19 04:14:50;;;;;;;6.28;1.77;;;;;;;15.98;40.17;102357.56;5027978;27;98936;-74
2023/05/19 04:17:17;;;;;;;5.53;1.85;;;;;;;15.98;40.16;102359.38;5033300;27;96950;-73
2023/05/19 04:19:46;;;;;;;7.57;1.85;;;;;;;16.18;40.01;102356.91;5025905;27;96891;-73
2023/05/19 04:22:12;;;;;;;8.77;1.90;;;;;;;16.16;39.81;102358.75;5019595;27;97794;-72
2023/05/19 04:24:39;;;;;;;6.20;2.00;;;;;;;16.10;39.92;102356.28;5025438;27;98775;-74
2023/05/19 04:27:10;;;;;;;8.65;1.80;;;;;;;16.22;39.88;102363.88;5019188;27;96807;-74
2023/05/19 04:29:37;;;;;;;5.72;1.40;;;;;;;16.25;39.76;102367.34;5028094;27;98168;-74
2023/05/19 04:32:06;;;;;;;5.95;1.95;;;;;;;16.31;39.72;102364.47;5018926;27;99113;-72
2023/05/19 04:34:33;;;;;;;5.90;1.75;;;;;;;16.28;39.85;102367.22;5028510;27;101291;-73
2023/05/19 04:37:01;;;;;;;5.07;1.58;;;;;;;16.43;39.70;102365.84;5024008;27;96808;-72
2023/05/19 04:39:28;;;;;;;5.25;1.40;;;;;;;16.55;39.33;102365.41;5027523;27;96833;-74
2023/05/19 04:41:55;;;;;;;3.45;1.30;;;;;;;16.69;39.28;102370.28;5032508;27;100626;-73
2023/05/19 04:44:21;;;;;;;5.50;2.20;;;;;;;16.83;38.95;102368.00;5024943;27;98982;-73
2023/05/19 04:46:48;;;;;;;6.00;2.30;;;;;;;16.92;38.78;102367.69;5026194;27;97000;-76
2023/05/19 04:49:15;;;;;;;8.52;2.00;;;;;;;16.88;39.03;102363.38;5035004;27;97012;-73
2023/05/19 04:51:41;;;;;;;13.07;2.15;;;;;;;16.79;39.20;102366.41;5029617;27;97849;-73
2023/05/19 04:54:09;;;;;;;9.98;2.05;;;;;;;16.87;39.03;102369.63;5032207;27;98902;-73
2023/05/19 04:56:35;;;;;;;8.50;1.95;;;;;;;17.18;38.59;102373.88;5029705;27;96850;-74
2023/05/19 04:59:02;;;;;;;4.82;2.00;;;;;;;17.36;38.10;102378.50;5024861;27;98572;-73
2023/05/19 05:01:30;;;;;;;6.22;2.00;;;;;;;17.49;38.12;102372.66;5025573;27;99458;-74
2023/05/19 05:03:57;;;;;;;10.23;2.25;;;;;;;17.58;37.86;102376.78;5030480;27;98806;-74
2023/05/19 05:06:24;;;;;;;5.20;1.95;;;;;;;17.89;37.28;102369.31;5017732;27;96863;-74
2023/05/19 05:08:51;;;;;;;4.05;1.90;;;;;;;17.76;37.44;102372.53;5029778;27;97096;-74
2023/05/19 05:11:19;;;;;;;4.55;2.15;;;;;;;18.01;37.03;102372.41;5018119;27;100569;-73
2023/05/19 05:13:46;;;;;;;20.42;3.63;;;;;;;18.32;36.42;102363.03;5027022;27;98940;-72
2023/05/19 05:16:13;;;;;;;6.45;2.17;;;;;;;18.35;36.49;102367.41;5024966;27;96871;-73
2023/05/19 05:18:40;;;;;;;10.88;1.95;;;;;;;18.15;36.85;102367.38;5026698;27;97897;-72
2023/05/19 05:21:08;;;;;;;4.13;1.80;;;;;;;18.53;36.33;102373.78;5030073;27;98957;-73
2023/05/19 05:23:35;;;;;;;7.30;1.92;;;;;;;18.28;36.76;102377.50;5037776;27;99376;-73
2023/05/19 05:26:10;;;;;;;5.18;1.90;;;;;;;18.21;37.07;102373.34;5029708;27;98388;-73
2023/05/19 05:28:37;;;;;;;4.00;1.85;;;;;;;18.06;37.25;102375.75;5033404;27;97163;-74
2023/05/19 05:31:04;;;;;;;4.57;2.08;;;;;;;18.41;36.80;102364.47;5025120;27;99364;-74
2023/05/19 05:33:31;;;;;;;6.53;2.05;;;;;;;18.33;36.66;102374.63;5022051;27;99263;-73
2023/05/19 05:35:57;;;;;;;7.28;2.38;;;;;;;18.22;37.02;102376.88;5022669;27;97209;-73
2023/05/19 05:38:24;;;;;;;7.85;2.42;;;;;;;18.27;37.22;102369.53;5015345;27;97165;-73
2023/05/19 05:40:50;;;;;;;4.72;2.08;;;;;;;18.25;37.22;102376.72;5029724;27;100942;-74
2023/05/19 05:43:17;;;;;;;8.88;2.40;;;;;;;18.17;37.35;102371.72;5030943;27;98798;-74
2023/05/19 05:45:44;;;;;;;12.20;2.55;;;;;;;18.13;37.37;102375.44;5029990;27;97769;-74
2023/05/19 05:48:11;;;;;;;10.23;2.75;;;;;;;18.25;37.48;102368.72;5023994;27;96932;-72
2023/05/19 05:50:38;;;;;;;7.22;2.38;;;;;;;18.30;37.34;102364.94;5032846;27;98978;-72
2023/05/19 05:53:06;;;;;;;6.35;2.47;;;;;;;18.56;36.86;102373.69;5020787;27;98621;-73
2023/05/19 05:55:33;;;;;;;8.07;2.30;;;;;;;18.51;36.82;102373.81;5029989;27;97022;-73
2023/05/19 05:58:02;;;;;;;7.47;1.85;;;;;;;18.37;37.47;102370.03;5036574;27;97094;-73
2023/05/19 06:00:29;;;;;;;4.57;2.05;;;;;;;18.65;36.82;102367.91;5028909;27;101127;-73
2023/05/19 06:02:57;;;;;;;12.60;2.60;;;;;;;18.69;36.73;102370.41;5029385;27;97672;-73
2023/05/19 06:05:24;;;;;;;8.15;2.47;;;;;;;18.56;37.17;102368.34;5017024;27;97207;-72
2023/05/19 06:07:51;;;;;;;12.20;1.98;;;;;;;18.46;37.18;102372.28;5022082;27;96824;-72
2023/05/19 06:10:17;;;;;;;6.20;2.13;;;;;;;18.87;36.84;102365.16;5021250;27;99223;-74
2023/05/19 06:12:44;;;;;;;5.85;2.25;;;;;;;18.95;36.46;102365.69;5024544;27;98816;-74
2023/05/19 06:15:10;;;;;;;9.13;2.67;;;;;;;18.99;36.22;102369.97;5027771;27;96732;-74
2023/05/19 06:17:37;;;;;;;5.97;2.22;;;;;;;19.11;36.03;102370.28;5015014;27;98039;-74
2023/05/19 06:20:07;;;;;;;11.52;2.42;;;;;;;18.91;36.74;102375.66;5024126;27;98900;-74
2023/05/19 06:22:34;;;;;;;6.95;1.92;;;;;;;19.16;36.44;102372.78;5029425;27;101502;-74
2023/05/19 06:25:00;;;;;;;7.20;2.20;;;;;;;19.54;35.80;102372.84;5029522;27;96751;-74
2023/05/19 06:27:26;;;;;;;4.38;2.53;;;;;;;19.68;34.96;102365.00;5025415;27;96992;-74
2023/05/19 06:29:53;;;;;;;9.27;2.75;;;;;;;19.58;35.13;102375.28;5025038;27;98988;-74
2023/05/19 06:32:20;;;;;;;6.97;2.28;;;;;;;19.90;35.14;102376.41;5019787;27;99196;-75
2023/05/19 06:34:52;;;;;;;7.25;2.30;;;;;;;19.95;34.92;102382.44;5024238;27;96884;-74
2023/05/19 06:37:21;;;;;;;7.88;2.10;;;;;;;19.66;35.17;102372.25;5026482;27;97543;-73
2023/05/19 06:39:50;;;;;;;5.85;2.30;;;;;;;20.03;34.65;102377.56;5029982;27;98889;-74
2023/05/19 06:42:16;;;;;;;6.57;2.53;;;;;;;19.95;34.66;102377.09;5027858;27;99558;-75
2023/05/19 06:44:43;;;;;;;6.85;2.22;;;;;;;20.31;34.01;102369.00;5027738;27;96811;-74
2023/05/19 06:47:09;;;;;;;8.07;2.60;;;;;;;20.23;34.61;102369.38;5017566;27;96880;-73
2023/05/19 06:49:35;;;;;;;4.60;2.33;;;;;;;20.57;33.85;102373.94;5017663;27;99041;-74
2023/05/19 06:52:02;;;;;;;7.82;2.47;;;;;;;21.05;33.20;102365.13;5016036;27;99041;-74
2023/05/19 06:54:29;;;;;;;6.05;2.50;;;;;;;20.95;33.16;102361.19;5028593;27;97497;-75
2023/05/19 06:56:56;;;;;;;12.85;2.28;;;;;;;21.19;33.15;102363.53;5027281;27;97342;-74
2023/05/19 06:59:22;;;;;;;8.80;2.65;;;;;;;21.29;32.88;102368.31;5021749;27;99442;-74
2023/05/19 07:01:48;;;;;;;5.45;2.33;;;;;;;21.28;32.65;102374.66;5032574;27;99937;-74
2023/05/19 07:04:15;;;;;;;6.25;2.40;;;;;;;21.19;33.00;102360.84;5031781;27;96781;-74
2023/05/19 07:06:41;;;;;;;5.70;2.60;;;;;;;21.19;33.10;102363.53;5021257;27;97035;-74
2023/05/19 07:09:08;;;;;;;5.68;2.33;;;;;;;21.26;32.98;102365.81;5027419;27;100908;-76
2023/05/19 07:11:35;;;;;;;7.35;2.70;;;;;;;21.37;32.99;102363.41;5019390;27;98428;-75
2023/05/19 07:14:11;;;;;;;5.38;2.60;;;;;;;21.43;32.84;102360.38;5024301;27;97549;-75
2023/05/19 07:16:45;;;;;;;9.63;2.60;;;;;;;21.50;32.70;102365.41;5021379;27;97398;-77
2023/05/19 07:19:12;;;;;;;5.95;2.63;;;;;;;21.63;32.74;102367.31;5019921;27;97742;-75
2023/05/19 07:21:38;;;;;;;6.68;2.10;;;;;;;21.31;33.26;102360.19;5022540;27;98778;-74
2023/05/19 07:24:05;;;;;;;5.60;2.30;;;;;;;21.22;33.61;102366.03;5034649;27;97263;-75
2023/05/19 07:26:31;;;;;;;5.22;2.13;;;;;;;21.65;32.90;102370.81;5025880;27;96843;-74
2023/05/19 07:28:59;;;;;;;3.50;2.10;;;;;;;21.61;32.78;102366.53;5023163;27;98967;-74
2023/05/19 07:31:25;;;;;;;9.65;3.97;;;;;;;22.15;32.24;102367.91;5017981;27;98807;-75
2023/05/19 07:33:52;;;;;;;7.80;3.78;;;;;;;22.34;32.04;102373.09;5012662;27;97344;-75
2023/05/19 07:36:18;;;;;;;14.75;3.15;;;;;;;22.54;31.60;102361.13;5027894;27;96897;-75
2023/05/19 07:38:45;;;;;;;8.15;2.28;;;;;;;22.89;31.19;102364.41;5015774;27;99485;-74
2023/05/19 07:41:12;;;;;;;8.90;2.17;;;;;;;22.64;31.25;102362.31;5027035;27;99070;-75
2023/05/19 07:43:38;;;;;;;5.57;2.47;;;;;;;22.59;31.59;102367.09;5029757;27;96810;-75
2023/05/19 07:46:06;;;;;;;5.93;2.35;;;;;;;22.50;31.76;102360.47;5034678;27;96889;-75
2023/05/19 07:48:32;;;;;;;4.15;2.45;;;;;;;22.20;32.29;102359.56;5023695;27;99079;-75
2023/05/19 07:50:59;;;;;;;4.65;2.50;;;;;;;22.44;32.31;102355.44;5022640;27;98285;-75
2023/05/19 07:53:26;;;;;;;8.75;4.70;;;;;;;22.62;31.82;102357.00;5023652;27;96789;-75
2023/05/19 07:55:53;;;;;;;6.68;2.22;;;;;;;22.59;31.28;102354.50;5022814;27;96817;-75
2023/05/19 07:58:19;;;;;;;5.13;1.92;;;;;;;22.69;31.18;102353.94;5024725;27;99311;-76
2023/05/19 08:00:47;;;;;;;5.03;2.80;;;;;;;22.79;31.21;102349.75;5022297;27;97097;-75
2023/05/19 08:03:16;;;;;;;9.35;2.60;;;;;;;22.64;31.20;102352.38;5015241;27;97920;-75
2023/05/19 08:05:42;;;;;;;4.75;1.90;;;;;;;22.89;31.15;102350.94;5020307;27;96945;-75
2023/05/19 08:08:10;;;;;;;7.03;2.70;;;;;;;22.85;30.97;102346.66;5022101;27;98199;-76
2023/05/19 08:10:37;;;;;;;5.25;2.63;;;;;;;23.09;30.68;102342.47;5023774;27;101196;-75
2023/05/19 08:13:04;;;;;;;4.95;2.45;;;;;;;23.26;30.64;102353.03;5021834;27;96979;-75
2023/05/19 08:15:30;;;;;;;6.32;2.42;;;;;;;23.46;30.39;102346.38;5023872;27;97026;-75
2023/05/19 08:17:56;;;;;;;6.88;2.60;;;;;;;23.72;29.80;102350.09;5020510;27;97942;-75
2023/05/19 08:20:24;;;;;;;8.95;2.65;;;;;;;23.87;29.48;102345.53;5016144;27;98771;-74
2023/05/19 08:22:50;;;;;;;6.10;2.85;;;;;;;24.32;28.73;102349.72;5020320;27;96793;-75
2023/05/19 08:25:18;;;;;;;6.45;3.58;;;;;;;24.06;29.35;102346.03;5015970;27;96823;-75
2023/05/19 08:27:44;;;;;;;9.38;2.42;;;;;;;24.00;29.62;102360.84;5017830;27;100698;-75
2023/05/19 08:30:12;;;;;;;6.15;2.67;;;;;;;23.93;29.12;102351.41;5012004;27;99432;-74
2023/05/19 08:32:38;;;;;;;8.85;2.47;;;;;;;23.90;29.24;102354.28;5016532;27;96790;-75
2023/05/19 08:35:05;;;;;;;5.55;2.65;;;;;;;23.86;29.54;102363.56;5021729;27;96892;-74
2023/05/19 08:37:35;;;;;;;5.47;2.22;;;;;;;23.61;29.77;102355.34;5022291;27;100619;-75
2023/05/19 08:40:03;;;;;;;4.80;2.40;;;;;;;23.54;29.54;102346.78;5021757;27;99023;-75
2023/05/19 08:42:31;;;;;;;4.95;1.80;;;;;;;23.40;29.31;102349.47;5022390;27;96930;-74
2023/05/19 08:44:58;;;;;;;6.05;2.25;;;;;;;23.22;29.54;102347.94;5017121;27;100311;-75
2023/05/19 08:47:26;;;;;;;4.68;2.33;;;;;;;23.26;29.87;102347.66;5019689;27;97862;-76
2023/05/19 08:50:02;;;;;;;5.40;1.95;;;;;;;23.54;29.70;102345.91;5022194;27;99630;-75
2023/05/19 08:52:41;;;;;;;8.10;1.88;;;;;;;23.57;29.04;102341.16;5019222;27;96857;-75
2023/05/19 08:55:12;;;;;;;5.20;1.92;;;;;;;23.81;28.57;102338.72;5021476;27;97790;-75
2023/05/19 08:57:40;;;;;;;7.65;1.92;;;;;;;24.04;27.92;102340.75;5016481;27;99391;-75
2023/05/19 09:00:10;;;;;;;7.07;2.00;;;;;;;24.04;28.14;102331.78;5015634;27;102559;-75
2023/05/19 09:02:38;;;;;;;4.72;1.60;;;;;;;23.95;27.44;102333.28;5020113;27;97616;-75
2023/05/19 09:05:05;;;;;;;4.82;1.90;;;;;;;24.14;27.27;102327.50;5019968;27;97220;-76
2023/05/19 09:07:36;;;;;;;5.65;1.52;;;;;;;24.42;26.68;102316.56;5017049;27;99163;-75
2023/05/19 09:10:04;;;;;;;4.78;1.50;;;;;;;24.80;25.93;102322.00;5009189;27;101347;-75
2023/05/19 09:12:31;;;;;;;5.18;1.40;;;;;;;24.52;27.04;102320.38;5022889;27;97580;-75
2023/05/19 09:14:57;;;;;;;5.43;1.80;;;;;;;24.60;26.48;102322.53;5015632;27;97903;-74
2023/05/19 09:17:24;;;;;;;2.42;1.42;;;;;;;24.40;26.48;102317.66;5015023;27;102052;-75
2023/05/19 09:19:51;;;;;;;3.47;1.20;;;;;;;24.68;25.87;102311.19;5016900;27;98986;-76
2023/05/19 09:22:18;;;;;;;1.25;0.98;;;;;;;24.76;25.18;102315.06;5021401;27;96969;-75
2023/05/19 09:24:47;;;;;;;3.80;1.15;;;;;;;24.59;25.08;102307.28;5016501;27;96939;-75
2023/05/19 09:27:15;;;;;;;2.88;1.10;;;;;;;24.29;25.75;102296.75;5013745;27;99323;-75
2023/05/19 09:29:42;;;;;;;3.10;1.20;;;;;;;24.18;25.86;102302.88;5013406;27;98651;-75
2023/05/19 09:32:09;;;;;;;2.13;1.30;;;;;;;24.34;26.21;102296.47;5016417;27;98581;-76
2023/05/19 09:34:41;;;;;;;2.95;1.15;;;;;;;24.59;25.95;102304.59;5012286;27;97486;-75
2023/05/19 09:37:07;;;;;;;5.43;1.25;;;;;;;24.56;25.77;102297.56;5018785;27;99610;-75
2023/05/19 09:39:34;;;;;;;2.65;1.17;;;;;;;24.88;25.17;102294.41;5012979;27;99002;-76
2023/05/19 09:42:05;;;;;;;4.25;1.23;;;;;;;24.99;25.02;102300.84;5017714;27;96760;-74
2023/05/19 09:44:31;;;;;;;3.05;1.00;;;;;;;25.07;25.08;102300.28;5018584;27;97048;-76
2023/05/19 09:46:58;;;;;;;2.70;0.95;;;;;;;24.98;25.02;102299.09;5014508;27;99068;-75
2023/05/19 09:49:28;;;;;;;3.15;1.27;;;;;;;24.73;25.41;102296.38;5015139;27;98836;-74
2023/05/19 09:51:55;;;;;;;6.25;1.10;;;;;;;24.46;24.88;102295.59;5008394;27;97176;-75
2023/05/19 09:54:22;;;;;;;6.40;1.27;;;;;;;25.02;24.67;102292.47;5013319;27;97102;-75
2023/05/19 09:56:57;;;;;;;1.70;1.00;;;;;;;25.00;24.21;102286.34;5011607;27;99341;-76
2023/05/19 09:59:26;;;;;;;2.75;0.90;;;;;;;25.32;24.27;102281.28;5012607;27;101323;-74
2023/05/19 10:01:54;;;;;;;3.42;2.42;;;;;;;25.31;24.67;102274.16;5016464;27;96898;-77
2023/05/19 10:04:22;;;;;;;2.85;1.02;;;;;;;25.35;24.11;102280.19;5019684;27;97200;-75
2023/05/19 10:06:52;;;;;;;4.05;1.00;;;;;;;25.30;23.71;102277.81;5019072;27;99382;-75
2023/05/19 10:09:21;;;;;;;5.90;1.00;;;;;;;25.21;24.20;102273.06;5021532;27;98965;-75
2023/05/19 10:11:49;;;;;;;1.35;0.98;;;;;;;24.60;24.90;102271.19;5020561;27;96884;-76
2023/05/19 10:14:16;;;;;;;1.67;0.77;;;;;;;24.49;24.79;102263.81;5022025;27;96892;-76
2023/05/19 10:16:45;;;;;;;2.63;1.02;;;;;;;24.66;24.77;102259.94;5024272;27;99110;-76
2023/05/19 10:19:13;;;;;;;1.95;0.90;;;;;;;24.65;24.83;102262.75;5018721;27;98816;-74
2023/05/19 10:21:40;;;;;;;3.38;1.00;;;;;;;24.70;25.21;102271.38;5024730;27;98585;-74
2023/05/19 10:24:06;;;;;;;3.72;1.20;;;;;;;24.69;25.23;102272.34;5018282;27;97113;-75
2023/05/19 10:26:35;;;;;;;4.07;1.08;;;;;;;24.61;25.48;102272.94;5022407;27;98867;-75
2023/05/19 10:29:03;;;;;;;4.60;1.40;;;;;;;24.83;25.30;102266.84;5029414;27;98980;-75
2023/05/19 10:31:32;;;;;;;4.00;1.15;;;;;;;25.23;25.05;102270.25;5020691;27;100197;-75
2023/05/19 10:34:23;;;;;;;2.70;1.20;;;;;;;25.04;24.71;102264.47;5020429;27;96994;-76
2023/05/19 10:36:57;;;;;;;2.20;1.20;;;;;;;25.01;24.79;102263.72;5024798;27;98970;-75
2023/05/19 10:39:27;;;;;;;5.00;1.15;;;;;;;24.53;24.95;102262.66;5017239;27;98817;-74
2023/05/19 10:42:03;;;;;;;5.30;1.40;;;;;;;24.81;24.51;102261.53;5020966;27;98072;-74
2023/05/19 10:44:40;;;;;;;2.17;1.00;;;;;;;24.74;24.69;102268.38;5014439;27;96949;-74
2023/05/19 10:47:07;;;;;;;1.90;1.02;;;;;;;24.64;24.70;102259.19;5021231;27;99357;-75
2023/05/19 10:49:36;;;;;;;4.93;0.95;;;;;;;24.84;24.52;102264.03;5021643;27;97675;-75
2023/05/19 10:52:02;;;;;;;4.10;1.10;;;;;;;24.80;24.52;102267.06;5022790;27;96779;-75
2023/05/19 10:54:41;;;;;;;1.08;0.80;;;;;;;24.82;24.43;102255.16;5021006;27;97080;-75
2023/05/19 10:57:08;;;;;;;2.75;1.05;;;;;;;25.21;24.31;102250.56;5018909;27;98955;-74
2023/05/19 10:59:36;;;;;;;6.47;1.15;;;;;;;25.05;24.31;102248.13;5019568;27;98095;-75
2023/05/19 11:02:03;;;;;;;2.45;1.20;;;;;;;25.14;24.52;102249.31;5024743;27;97119;-75
2023/05/19 11:04:46;;;;;;;3.33;1.15;;;;;;;25.17;24.24;102251.78;5017664;27;97052;-74
2023/05/19 11:07:17;;;;;;;3.35;1.05;;;;;;;25.18;24.52;102250.81;5020183;27;101354;-74
2023/05/19 11:09:43;;;;;;;1.55;1.20;;;;;;;25.38;24.37;102242.97;5016799;27;99133;-74
2023/05/19 11:12:10;;;;;;;2.28;1.00;;;;;;;25.65;23.80;102240.06;5015444;27;97641;-75
2023/05/19 11:14:37;;;;;;;1.85;1.20;;;;;;;25.10;24.49;102248.66;5020739;27;96928;-76
2023/05/19 11:17:05;;;;;;;3.35;1.10;;;;;;;24.86;24.34;102245.88;5021483;27;99198;-76
2023/05/19 11:19:32;;;;;;;1.50;1.13;;;;;;;25.38;24.11;102253.78;5018874;27;101055;-75
2023/05/19 11:22:10;;;;;;;1.23;0.90;;;;;;;25.38;24.05;102236.69;5018234;27;96864;-75
2023/05/19 11:24:38;;;;;;;1.08;0.85;;;;;;;25.61;24.17;102238.53;5022258;27;97091;-75
2023/05/19 11:27:20;;;;;;;2.72;1.17;;;;;;;25.57;24.16;102241.56;5015723;27;102018;-75
2023/05/19 11:29:48;;;;;;;1.80;1.00;;;;;;;25.36;24.12;102228.66;5020371;27;99107;-75